createdAt,value
2018-09-14T00:01:10.157Z,93.09
2018-09-14T00:04:34.813Z,93.75
2018-09-14T00:07:59.516Z,94.55
2018-09-14T00:11:24.178Z,89.38
2018-09-14T00:14:48.883Z,85.82
2018-09-14T00:18:13.579Z,89.08
2018-09-14T00:21:38.270Z,91.23
2018-09-14T00:25:02.908Z,89.11
2018-09-14T00:28:28.585Z,86.56
2018-09-14T00:31:53.257Z,88.76
2018-09-14T00:35:18.033Z,88.32
2018-09-14T00:38:42.711Z,90.65
2018-09-14T00:42:07.471Z,91.16
2018-09-14T00:45:32.173Z,89.22
2018-09-14T00:48:57.915Z,91.86
2018-09-14T00:52:22.544Z,92.82
2018-09-14T00:55:47.302Z,91.27
2018-09-14T00:59:12.030Z,93.94
2018-09-14T01:02:36.814Z,92.97
2018-09-14T01:06:01.460Z,93.87
2018-09-14T01:09:28.223Z,94.25
2018-09-14T01:12:52.869Z,93.96
2018-09-14T01:16:17.539Z,93.36
2018-09-14T01:19:42.163Z,93.56
2018-09-14T01:23:06.863Z,91.86
2018-09-14T01:26:31.600Z,90.34
2018-09-14T01:29:56.899Z,92.95
2018-09-14T01:33:22.167Z,95.18
2018-09-14T01:36:46.856Z,92.38
2018-09-14T01:40:11.517Z,89.74
2018-09-14T01:43:36.183Z,93.02
2018-09-14T01:47:00.821Z,95.06
2018-09-14T01:50:25.549Z,95.29
2018-09-14T01:53:50.247Z,93.07
2018-09-14T01:57:14.983Z,89.51
2018-09-14T02:00:39.647Z,91.12
2018-09-14T02:04:04.365Z,86.33
2018-09-14T02:07:29.030Z,88.53
2018-09-14T02:10:53.786Z,88.76
2018-09-14T02:14:18.479Z,89.05
2018-09-14T02:17:43.224Z,90.20
2018-09-14T02:21:07.879Z,88.65
2018-09-14T02:24:32.621Z,92.18
2018-09-14T02:27:58.060Z,91.54
2018-09-14T02:31:22.859Z,90.87
2018-09-14T02:34:47.523Z,93.31
2018-09-14T02:38:12.239Z,91.59
2018-09-14T02:41:37.145Z,91.19
2018-09-14T02:45:01.891Z,91.84
2018-09-14T02:48:26.635Z,88.72
2018-09-14T02:51:51.339Z,93.07
2018-09-14T02:55:16.199Z,92.63
2018-09-14T02:58:40.939Z,91.21
2018-09-14T03:02:05.237Z,92.18
2018-09-14T03:05:29.909Z,90.81
2018-09-14T03:08:54.583Z,90.87
2018-09-14T03:12:19.270Z,89.36
2018-09-14T03:15:43.947Z,92.06
2018-09-14T03:19:08.618Z,88.71
2018-09-14T03:22:33.347Z,86.67
2018-09-14T03:25:58.038Z,90.54
2018-09-14T03:29:22.826Z,84.25
2018-09-14T03:32:47.527Z,90.88
2018-09-14T03:36:12.170Z,85.49
2018-09-14T03:39:36.887Z,92.12
2018-09-14T03:43:01.582Z,84.78
2018-09-14T03:46:26.273Z,87.48
2018-09-14T03:49:51.059Z,90.39
2018-09-14T03:53:15.717Z,90.68
2018-09-14T03:56:40.501Z,90.63
2018-09-14T04:00:05.293Z,88.96
2018-09-14T04:03:29.983Z,89.04
2018-09-14T04:06:54.714Z,89.36
2018-09-14T04:10:19.398Z,90.26
2018-09-14T04:13:44.050Z,90.85
2018-09-14T04:17:08.740Z,91.34
2018-09-14T04:20:33.480Z,91.54
2018-09-14T04:23:58.323Z,92.94
2018-09-14T04:27:23.010Z,91.95
2018-09-14T04:30:47.864Z,81.14
2018-09-14T04:34:12.521Z,87.96
2018-09-14T04:37:37.181Z,91.20
2018-09-14T04:41:01.889Z,90.60
2018-09-14T04:44:26.576Z,89.06
2018-09-14T04:47:51.249Z,90.96
2018-09-14T04:51:16.018Z,90.35
2018-09-14T04:54:40.647Z,89.66
2018-09-14T04:58:05.605Z,90.25
2018-09-14T05:01:30.330Z,91.02
2018-09-14T05:04:55.191Z,88.97
2018-09-14T05:08:20.184Z,88.80
2018-09-14T05:11:45.187Z,93.15
2018-09-14T05:15:09.928Z,89.38
2018-09-14T05:18:34.649Z,84.20
2018-09-14T05:21:59.393Z,86.16
2018-09-14T05:25:24.116Z,91.43
2018-09-14T05:28:48.880Z,91.27
2018-09-14T05:32:13.587Z,92.56
2018-09-14T05:37:02.734Z,93.62
2018-09-14T05:40:27.410Z,93.62
2018-09-14T05:43:52.057Z,90.35
2018-09-14T05:47:16.788Z,91.63
2018-09-14T05:50:41.454Z,92.76
2018-09-14T05:54:06.160Z,91.65
2018-09-14T05:57:30.897Z,93.19
2018-09-14T06:00:55.699Z,93.18
2018-09-14T06:04:20.370Z,93.72
2018-09-14T06:07:45.042Z,93.54
2018-09-14T06:11:09.814Z,94.03
2018-09-14T06:14:34.793Z,93.47
2018-09-14T06:17:59.442Z,90.45
2018-09-14T06:21:24.086Z,88.66
2018-09-14T06:24:48.791Z,92.37
2018-09-14T06:28:13.534Z,89.30
2018-09-14T06:31:38.341Z,90.97
2018-09-14T06:35:03.036Z,94.39
2018-09-14T06:38:27.681Z,93.79
2018-09-14T06:41:52.435Z,93.33
2018-09-14T06:45:17.188Z,92.02
2018-09-14T06:48:41.896Z,93.81
2018-09-14T06:52:06.796Z,86.55
2018-09-14T06:55:31.495Z,86.92
2018-09-14T06:58:56.167Z,86.98
2018-09-14T07:02:22.996Z,87.99
2018-09-14T07:05:47.718Z,88.69
2018-09-14T07:09:12.450Z,88.99
2018-09-14T07:12:37.120Z,86.39
2018-09-14T07:16:01.870Z,88.18
2018-09-14T07:19:26.681Z,88.36
2018-09-14T07:22:52.544Z,85.60
2018-09-14T07:26:17.386Z,85.35
2018-09-14T07:29:42.128Z,85.35
2018-09-14T07:33:06.972Z,86.36
2018-09-14T07:36:31.772Z,85.66
2018-09-14T07:39:56.500Z,85.34
2018-09-14T07:43:21.253Z,82.17
2018-09-14T07:46:46.004Z,83.29
2018-09-14T07:50:10.702Z,84.16
2018-09-14T07:53:35.519Z,83.80
2018-09-14T07:57:00.147Z,80.11
2018-09-14T08:00:24.846Z,84.27
2018-09-14T08:03:49.604Z,85.41
2018-09-14T08:07:14.414Z,86.14
2018-09-14T08:10:39.253Z,85.57
2018-09-14T08:14:04.149Z,84.97
2018-09-14T08:17:29.978Z,83.05
2018-09-14T08:20:54.795Z,85.45
2018-09-14T08:24:19.478Z,84.94
2018-09-14T08:27:44.234Z,83.33
2018-09-14T08:31:08.988Z,82.29
2018-09-14T08:34:33.883Z,81.64
2018-09-14T08:37:58.508Z,81.04
2018-09-14T08:41:23.248Z,81.36
2018-09-14T08:44:47.906Z,80.46
2018-09-14T08:48:12.620Z,80.62
2018-09-14T08:51:37.345Z,78.17
2018-09-14T08:55:02.016Z,76.89
2018-09-14T08:58:26.657Z,77.84
2018-09-14T09:01:51.346Z,77.78
2018-09-14T09:05:16.014Z,77.50
2018-09-14T09:08:40.678Z,76.69
2018-09-14T09:12:05.414Z,75.99
2018-09-14T09:15:30.178Z,72.06
2018-09-14T09:18:54.879Z,74.11
2018-09-14T09:22:19.649Z,72.93
2018-09-14T09:25:44.370Z,75.12
2018-09-14T09:29:09.049Z,72.52
2018-09-14T09:32:33.846Z,73.88
2018-09-14T09:35:58.507Z,75.07
2018-09-14T09:39:23.276Z,74.25
2018-09-14T09:42:47.998Z,75.61
2018-09-14T09:46:12.799Z,74.23
2018-09-14T09:49:37.604Z,72.90
2018-09-14T09:53:02.430Z,71.94
2018-09-14T09:57:51.610Z,71.63
2018-09-14T10:01:21.661Z,71.04
2018-09-14T10:05:53.087Z,72.55
2018-09-14T10:09:17.756Z,68.72
2018-09-14T10:12:42.417Z,70.35
2018-09-14T10:16:07.150Z,70.96
2018-09-14T10:19:31.814Z,69.84
2018-09-14T10:22:56.472Z,68.83
2018-09-14T10:26:21.277Z,69.01
2018-09-14T10:29:46.001Z,69.00
2018-09-14T10:33:10.757Z,69.04
2018-09-14T10:36:35.503Z,68.77
2018-09-14T10:40:00.175Z,70.39
2018-09-14T10:43:24.884Z,69.70
2018-09-14T10:46:49.589Z,70.67
2018-09-14T10:50:14.519Z,69.72
2018-09-14T10:53:39.295Z,67.63
2018-09-14T10:57:04.359Z,66.95
2018-09-14T11:00:28.983Z,67.65
2018-09-14T11:03:53.741Z,67.18
2018-09-14T11:07:18.450Z,66.95
2018-09-14T11:10:43.713Z,67.14
2018-09-14T11:14:08.716Z,65.53
2018-09-14T11:17:33.339Z,62.25
2018-09-14T11:20:57.976Z,62.21
2018-09-14T11:24:22.762Z,62.41
2018-09-14T11:27:48.168Z,62.29
2018-09-14T11:31:12.820Z,64.18
2018-09-14T11:34:37.477Z,64.90
2018-09-14T11:38:02.309Z,64.60
2018-09-14T11:41:27.090Z,64.28
2018-09-14T11:44:53.132Z,61.61
2018-09-14T11:48:18.023Z,61.52
2018-09-14T11:57:38.688Z,59.37
2018-09-14T12:01:05.790Z,57.40
2018-09-14T12:04:30.534Z,58.51
2018-09-14T12:07:55.394Z,59.15
2018-09-14T12:11:20.124Z,60.69
2018-09-14T12:14:44.830Z,58.41
2018-09-14T12:18:09.448Z,59.61
2018-09-14T12:21:34.150Z,58.15
2018-09-14T12:24:58.822Z,55.77
2018-09-14T12:28:23.554Z,56.59
2018-09-14T12:31:48.480Z,55.37
2018-09-14T12:35:13.120Z,55.89
2018-09-14T12:38:37.780Z,56.21
2018-09-14T12:42:02.418Z,57.11
2018-09-14T12:45:27.119Z,55.84
2018-09-14T12:48:51.979Z,55.44
2018-09-14T12:52:16.665Z,53.66
2018-09-14T12:55:41.312Z,55.66
2018-09-14T12:59:05.972Z,53.37
2018-09-14T13:02:30.668Z,52.05
2018-09-14T13:05:56.083Z,52.62
2018-09-14T13:09:21.965Z,53.59
2018-09-14T13:12:46.680Z,53.15
2018-09-14T13:16:11.330Z,55.03
2018-09-14T13:19:35.986Z,53.15
2018-09-14T13:23:00.665Z,55.07
2018-09-14T13:26:25.406Z,54.83
2018-09-14T13:29:50.147Z,55.44
2018-09-14T13:33:14.789Z,54.58
2018-09-14T13:36:39.466Z,54.82
2018-09-14T13:40:04.205Z,54.48
2018-09-14T13:43:28.890Z,53.71
2018-09-14T13:46:53.470Z,54.95
2018-09-14T13:50:18.148Z,54.51
2018-09-14T13:53:43.839Z,54.18
2018-09-14T13:57:08.450Z,54.10
2018-09-14T14:00:33.125Z,55.53
2018-09-14T14:03:57.796Z,53.57
2018-09-14T14:07:23.567Z,54.26
2018-09-14T14:10:48.770Z,54.33
2018-09-14T14:14:13.836Z,53.85
2018-09-14T14:17:39.405Z,54.31
2018-09-14T14:21:05.590Z,53.85
2018-09-14T14:24:30.434Z,54.55
2018-09-14T14:27:55.214Z,53.27
2018-09-14T14:31:19.989Z,54.29
2018-09-14T14:34:44.653Z,54.17
2018-09-14T14:38:09.343Z,55.59
2018-09-14T14:41:34.037Z,55.05
2018-09-14T14:44:58.764Z,54.35
2018-09-14T14:48:23.562Z,53.78
2018-09-14T14:51:48.294Z,54.14
2018-09-14T14:55:14.250Z,53.70
2018-09-14T14:58:38.897Z,53.34
2018-09-14T15:02:03.523Z,53.85
2018-09-14T15:05:28.286Z,53.04
2018-09-14T15:08:53.113Z,52.06
2018-09-14T15:12:18.864Z,51.73
2018-09-14T15:15:43.557Z,51.09
2018-09-14T15:19:08.314Z,50.38
2018-09-14T15:22:32.938Z,51.83
2018-09-14T15:25:57.628Z,51.95
2018-09-14T15:29:22.294Z,52.15
2018-09-14T15:32:46.954Z,52.61
2018-09-14T15:36:11.655Z,52.69
2018-09-14T15:39:36.372Z,52.47
2018-09-14T15:43:02.106Z,53.46
2018-09-14T15:46:26.865Z,54.85
2018-09-14T15:49:51.496Z,55.98
2018-09-14T15:53:16.213Z,55.32
2018-09-14T15:56:40.923Z,54.77
2018-09-14T16:00:06.604Z,54.22
2018-09-14T16:03:31.304Z,53.71
2018-09-14T16:06:56.012Z,53.42
2018-09-14T16:10:20.734Z,52.51
2018-09-14T16:13:45.346Z,51.96
2018-09-14T16:17:10.174Z,54.08
2018-09-14T16:21:59.233Z,55.32
2018-09-14T16:25:24.140Z,56.16
2018-09-14T16:28:48.840Z,57.02
2018-09-14T16:32:13.518Z,58.19
2018-09-14T16:35:38.170Z,59.34
2018-09-14T16:39:02.925Z,59.31
2018-09-14T16:42:27.662Z,60.06
2018-09-14T16:45:52.330Z,59.97
2018-09-14T16:49:25.324Z,59.19
2018-09-14T16:52:50.011Z,60.38
2018-09-14T16:56:14.746Z,59.61
2018-09-14T16:59:39.565Z,60.32
2018-09-14T17:03:04.274Z,59.80
2018-09-14T17:06:28.980Z,60.03
2018-09-14T17:09:54.624Z,61.14
2018-09-14T17:13:19.320Z,61.30
2018-09-14T17:16:44.087Z,60.80
2018-09-14T17:20:08.875Z,61.92
2018-09-14T17:23:33.604Z,62.00
2018-09-14T17:26:58.379Z,62.11
2018-09-14T17:30:23.198Z,62.89
2018-09-14T17:33:47.907Z,63.38
2018-09-14T17:37:12.645Z,62.97
2018-09-14T17:40:37.411Z,63.30
2018-09-14T17:44:03.325Z,64.55
2018-09-14T17:47:28.017Z,64.82
2018-09-14T17:50:52.845Z,64.58
2018-09-14T17:54:17.592Z,65.35
2018-09-14T17:57:42.533Z,65.18
2018-09-14T18:01:07.601Z,65.77
2018-09-14T18:08:08.019Z,65.13
2018-09-14T18:11:32.880Z,65.13
2018-09-14T18:14:57.859Z,64.53
2018-09-14T18:18:22.576Z,66.43
2018-09-14T18:21:47.317Z,65.50
2018-09-14T18:25:12.012Z,65.07
2018-09-14T18:28:36.846Z,67.25
2018-09-14T18:32:02.811Z,66.40
2018-09-14T18:35:27.795Z,66.75
2018-09-14T18:38:53.179Z,66.86
2018-09-14T18:42:18.115Z,66.01
2018-09-14T18:45:42.803Z,67.67
2018-09-14T18:49:08.278Z,68.35
2018-09-14T18:52:33.086Z,67.77
2018-09-14T18:55:57.811Z,68.53
2018-09-14T18:59:22.710Z,67.71
2018-09-14T19:02:47.475Z,68.81
2018-09-14T19:06:13.755Z,70.09
2018-09-14T19:09:38.426Z,69.50
2018-09-14T19:13:03.255Z,69.05
2018-09-14T19:16:28.065Z,70.58
2018-09-14T19:19:52.963Z,70.30
2018-09-14T19:23:17.640Z,69.71
2018-09-14T19:26:42.471Z,69.59
2018-09-14T19:30:07.199Z,70.92
2018-09-14T19:33:31.974Z,70.57
2018-09-14T19:36:56.712Z,69.70
2018-09-14T19:40:21.432Z,71.15
2018-09-14T19:43:46.138Z,69.52
2018-09-14T19:47:10.953Z,68.92
2018-09-14T19:50:35.668Z,68.86
2018-09-14T19:54:00.369Z,70.72
2018-09-14T19:57:25.104Z,70.22
2018-09-14T20:00:50.110Z,71.16
2018-09-14T20:04:14.810Z,70.26
2018-09-14T20:07:39.482Z,69.66
2018-09-14T20:11:04.218Z,70.04
2018-09-14T20:14:28.986Z,70.12
2018-09-14T20:17:53.752Z,69.49
2018-09-14T20:21:18.384Z,69.03
2018-09-14T20:24:43.192Z,70.24
2018-09-14T20:28:07.894Z,70.77
2018-09-14T20:31:32.619Z,71.12
2018-09-14T20:34:57.358Z,71.26
2018-09-14T20:38:22.055Z,71.71
2018-09-14T20:41:47.004Z,71.65
2018-09-14T20:45:11.714Z,71.28
2018-09-14T20:48:36.570Z,70.75
2018-09-14T20:52:03.002Z,72.04
2018-09-14T20:55:29.387Z,72.01
2018-09-14T20:58:55.830Z,73.18
2018-09-14T21:02:22.167Z,73.60
2018-09-14T21:05:48.297Z,73.43
2018-09-14T21:09:13.865Z,72.62
2018-09-14T21:12:38.977Z,71.47
2018-09-14T21:16:04.197Z,72.05
2018-09-14T21:19:29.318Z,70.05
2018-09-14T21:22:54.430Z,72.35
2018-09-14T21:26:19.892Z,72.52
2018-09-14T21:29:45.145Z,72.73
2018-09-14T21:33:10.314Z,72.28
2018-09-14T21:36:36.920Z,71.37
2018-09-14T21:40:02.236Z,72.38
2018-09-14T21:43:27.476Z,71.95
2018-09-14T21:46:52.721Z,71.96
2018-09-14T21:50:18.185Z,72.40
2018-09-14T21:53:43.713Z,72.09
2018-09-14T21:57:09.428Z,71.01
2018-09-14T22:00:39.834Z,71.05
2018-09-14T22:04:04.991Z,71.54
2018-09-14T22:07:30.536Z,72.19
2018-09-14T22:10:56.045Z,72.04
2018-09-14T22:14:21.260Z,72.35
2018-09-14T22:17:47.032Z,71.17
2018-09-14T22:21:12.693Z,71.92
2018-09-14T22:24:37.650Z,72.74
2018-09-14T22:28:02.339Z,73.04
2018-09-14T22:31:27.071Z,73.37
2018-09-14T22:34:51.758Z,73.22
2018-09-14T22:38:16.477Z,74.56
2018-09-14T22:41:41.296Z,74.24
2018-09-14T22:45:06.310Z,76.66
2018-09-14T22:48:30.942Z,74.21
2018-09-14T22:51:55.745Z,76.34
2018-09-14T22:55:20.430Z,77.03
2018-09-14T22:58:45.065Z,76.12
2018-09-14T23:02:09.814Z,76.68
2018-09-14T23:05:34.471Z,76.35
2018-09-14T23:08:59.108Z,75.84
2018-09-14T23:12:23.740Z,76.30
2018-09-14T23:15:59.973Z,77.03
2018-09-14T23:19:24.620Z,77.31
2018-09-14T23:22:49.363Z,78.00
2018-09-14T23:26:17.610Z,77.86
2018-09-14T23:29:42.299Z,77.59
2018-09-14T23:33:06.942Z,76.78
2018-09-14T23:36:31.626Z,78.09
2018-09-14T23:39:56.270Z,77.41
2018-09-14T23:43:20.944Z,79.17
2018-09-14T23:46:46.626Z,79.15
2018-09-14T23:50:11.263Z,77.66
2018-09-14T23:53:35.903Z,79.15
2018-09-14T23:57:00.566Z,78.82
